Time;durP1;ratioP1;P1;durP2;ratioP2;P2;SDS_P1;SDS_P2;PMS_P1;PMS_P2;Temp;Humidity;BMP_temperature;BMP_pressure;BME280_temperature;BME280_humidity;BME280_pressure;Samples;Min_cycle;Max_cycle;Signal;HPM_P1;HPM_P2
2021/12/29 00:01:23;;;;;;;6.10;4.30;;;8.90;99.90;;;;;;5072640;28;20216;-47
2021/12/29 00:03:49;;;;;;;9.50;5.87;;;8.90;99.90;;;;;;5072741;28;20182;-46
2021/12/29 00:06:15;;;;;;;6.03;4.60;;;8.90;99.90;;;;;;5072900;28;20176;-47
2021/12/29 00:08:40;;;;;;;9.07;5.03;;;8.90;99.90;;;;;;5055258;28;20313;-48
2021/12/29 00:11:06;;;;;;;8.37;6.07;;;8.90;99.90;;;;;;5072988;28;20669;-47
2021/12/29 00:13:33;;;;;;;6.07;4.20;;;8.90;99.90;;;;;;5073488;28;20282;-47
2021/12/29 00:16:00;;;;;;;7.50;4.53;;;8.90;99.90;;;;;;5058532;28;20202;-48
2021/12/29 00:18:28;;;;;;;6.30;4.80;;;8.90;99.90;;;;;;5077336;28;20258;-48
2021/12/29 00:20:55;;;;;;;8.57;6.00;;;8.90;99.90;;;;;;5058374;28;20685;-46
2021/12/29 00:23:21;;;;;;;6.50;5.10;;;8.90;99.90;;;;;;5076182;28;20244;-46
2021/12/29 00:25:47;;;;;;;6.03;4.43;;;9.00;99.90;;;;;;5076262;28;20582;-49
2021/12/29 00:28:14;;;;;;;6.67;5.13;;;8.90;99.90;;;;;;5076037;28;20200;-45
2021/12/29 00:30:40;;;;;;;10.23;5.00;;;8.90;99.90;;;;;;5076409;28;20191;-48
2021/12/29 00:33:06;;;;;;;5.43;4.60;;;8.90;99.90;;;;;;5076163;28;20203;-46
2021/12/29 00:35:34;;;;;;;7.53;5.03;;;9.00;99.90;;;;;;5076004;28;20176;-47
2021/12/29 00:38:02;;;;;;;8.50;5.70;;;8.90;99.90;;;;;;5076146;28;20643;-46
2021/12/29 00:40:28;;;;;;;7.17;5.60;;;8.90;99.90;;;;;;5076208;28;20187;-47
2021/12/29 00:42:54;;;;;;;10.73;6.57;;;8.90;99.90;;;;;;5076088;28;20200;-49
2021/12/29 00:45:20;;;;;;;12.67;6.57;;;8.90;99.90;;;;;;5057859;28;20187;-49
2021/12/29 00:47:45;;;;;;;9.23;4.37;;;8.90;99.90;;;;;;5075868;28;20187;-48
2021/12/29 00:50:13;;;;;;;7.47;5.53;;;8.90;99.90;;;;;;5057872;28;20188;-48
2021/12/29 00:52:39;;;;;;;7.67;5.77;;;8.90;99.90;;;;;;5057714;28;20230;-46
2021/12/29 00:55:05;;;;;;;8.53;6.80;;;8.90;99.90;;;;;;5075711;28;20628;-48
2021/12/29 00:57:31;;;;;;;6.10;4.80;;;8.90;99.90;;;;;;5075516;28;20199;-48
2021/12/29 00:59:57;;;;;;;7.03;4.97;;;8.90;99.90;;;;;;5041086;28;20188;-47
2021/12/29 01:02:23;;;;;;;7.03;5.97;;;9.00;99.90;;;;;;5075461;28;20199;-47
2021/12/29 01:04:49;;;;;;;6.90;5.07;;;8.90;99.90;;;;;;5057565;28;20233;-47
2021/12/29 01:07:15;;;;;;;6.23;5.23;;;8.90;99.90;;;;;;5075801;28;20179;-48
2021/12/29 01:09:42;;;;;;;6.43;5.07;;;8.90;99.90;;;;;;5075318;28;20187;-48
2021/12/29 01:12:09;;;;;;;5.90;4.67;;;8.90;99.90;;;;;;5075608;28;20231;-49
2021/12/29 01:14:35;;;;;;;5.20;4.53;;;8.90;99.90;;;;;;5075329;28;20254;-47
2021/12/29 01:17:00;;;;;;;5.00;3.43;;;9.00;99.90;;;;;;5057258;28;20200;-49
2021/12/29 01:19:30;;;;;;;4.77;4.27;;;9.00;99.90;;;;;;5057219;28;20180;-50
2021/12/29 01:21:58;;;;;;;6.93;5.07;;;9.00;99.90;;;;;;5057082;28;20200;-47
2021/12/29 01:24:30;;;;;;;6.23;5.40;;;8.90;99.90;;;;;;5075407;28;20171;-48
2021/12/29 01:26:57;;;;;;;6.13;5.00;;;9.00;99.90;;;;;;5056690;28;20210;-48
2021/12/29 01:29:26;;;;;;;5.60;5.07;;;8.90;99.90;;;;;;5074963;28;20208;-49
2021/12/29 01:31:52;;;;;;;5.30;3.43;;;8.90;99.90;;;;;;5075143;28;20256;-49
2021/12/29 01:34:18;;;;;;;6.77;4.93;;;8.90;99.90;;;;;;5075272;28;20605;-49
2021/12/29 01:36:43;;;;;;;6.40;5.23;;;9.00;99.90;;;;;;5075061;28;20203;-47
2021/12/29 01:39:14;;;;;;;8.13;4.67;;;8.90;99.90;;;;;;5056854;28;20175;-47
2021/12/29 01:41:40;;;;;;;10.43;5.57;;;8.90;99.90;;;;;;5056755;28;20168;-50
2021/12/29 01:44:08;;;;;;;4.97;4.43;;;8.90;99.90;;;;;;5075704;28;20179;-47
2021/12/29 01:46:34;;;;;;;7.27;5.20;;;8.90;99.90;;;;;;5056741;28;20183;-49
2021/12/29 01:48:59;;;;;;;6.93;5.50;;;8.90;99.90;;;;;;5074630;28;20266;-49
2021/12/29 01:51:25;;;;;;;6.83;5.97;;;8.90;99.90;;;;;;5056587;28;20184;-49
2021/12/29 01:54:04;;;;;;;10.30;6.60;;;8.90;99.90;;;;;;5056595;28;20693;-49
2021/12/29 01:56:31;;;;;;;4.77;3.73;;;8.90;99.90;;;;;;5074863;28;20592;-47
2021/12/29 01:58:57;;;;;;;6.83;5.53;;;8.80;99.90;;;;;;5056476;28;20175;-46
2021/12/29 02:01:23;;;;;;;7.97;6.23;;;8.90;99.90;;;;;;5074533;28;20180;-47
2021/12/29 02:03:50;;;;;;;6.70;5.50;;;8.90;99.90;;;;;;5056333;28;20283;-47
2021/12/29 02:06:16;;;;;;;6.10;5.47;;;8.90;99.90;;;;;;5074557;28;20227;-48
2021/12/29 02:08:42;;;;;;;9.67;6.07;;;8.90;99.90;;;;;;5074261;28;20164;-48
2021/12/29 02:11:08;;;;;;;6.67;5.20;;;8.80;99.90;;;;;;5074128;28;20195;-47
2021/12/29 02:13:33;;;;;;;9.17;5.67;;;8.80;99.90;;;;;;5073988;28;20219;-46
2021/12/29 02:15:59;;;;;;;12.13;6.00;;;8.80;99.90;;;;;;5056493;28;20202;-47
2021/12/29 02:18:26;;;;;;;9.87;6.17;;;8.80;99.90;;;;;;5074033;28;20172;-48
2021/12/29 02:20:56;;;;;;;10.50;6.37;;;8.80;99.90;;;;;;5074211;28;20185;-47
2021/12/29 02:23:45;;;;;;;9.43;5.67;;;8.80;99.90;;;;;;5074157;28;20233;-48
2021/12/29 02:26:12;;;;;;;7.77;6.13;;;8.80;99.90;;;;;;5074101;28;20151;-48
2021/12/29 02:28:41;;;;;;;4.30;3.87;;;8.80;99.90;;;;;;5073850;28;20187;-49
2021/12/29 02:31:07;;;;;;;7.70;5.97;;;8.80;99.90;;;;;;5055770;28;20171;-48
2021/12/29 02:33:34;;;;;;;7.20;5.23;;;8.80;99.90;;;;;;5073672;28;20275;-48
2021/12/29 02:36:03;;;;;;;7.80;5.47;;;8.80;99.90;;;;;;5073636;28;20180;-48
2021/12/29 02:38:32;;;;;;;7.73;5.47;;;8.80;99.90;;;;;;5055853;28;20176;-47
2021/12/29 02:41:03;;;;;;;8.40;5.73;;;8.80;99.90;;;;;;5055643;28;20191;-48
2021/12/29 02:43:32;;;;;;;8.10;5.33;;;8.80;99.90;;;;;;5073599;28;20614;-48
2021/12/29 02:45:58;;;;;;;7.83;5.63;;;8.70;99.90;;;;;;5073786;28;20183;-47
2021/12/29 02:48:34;;;;;;;9.30;6.97;;;8.70;99.90;;;;;;5073492;28;20184;-47
2021/12/29 02:51:04;;;;;;;11.53;7.00;;;8.80;99.90;;;;;;5073522;28;20164;-46
2021/12/29 02:53:30;;;;;;;9.60;6.40;;;8.80;99.90;;;;;;5073405;28;20206;-47
2021/12/29 02:55:56;;;;;;;9.70;6.37;;;8.80;99.90;;;;;;5073994;28;20662;-46
2021/12/29 02:58:23;;;;;;;7.93;5.77;;;8.70;99.90;;;;;;5055759;28;20211;-47
2021/12/29 03:00:50;;;;;;;9.60;6.87;;;8.70;99.90;;;;;;5055449;28;20168;-46
2021/12/29 03:03:25;;;;;;;11.97;6.87;;;8.70;99.90;;;;;;5073580;28;20204;-49
2021/12/29 03:05:52;;;;;;;10.40;6.90;;;8.70;99.90;;;;;;5039284;28;20174;-48
2021/12/29 03:08:18;;;;;;;8.10;6.57;;;8.70;99.90;;;;;;5073634;28;20278;-48
2021/12/29 03:10:46;;;;;;;6.07;4.87;;;8.70;99.90;;;;;;5073760;28;20245;-46
2021/12/29 03:13:11;;;;;;;11.33;6.97;;;8.70;99.90;;;;;;5039009;28;20218;-47
2021/12/29 03:15:38;;;;;;;9.87;6.57;;;8.70;99.90;;;;;;5073821;28;20685;-48
2021/12/29 03:18:05;;;;;;;11.23;7.23;;;8.60;99.90;;;;;;5055297;28;20202;-47
2021/12/29 03:20:31;;;;;;;14.87;7.33;;;8.70;99.90;;;;;;5073422;28;20205;-45
2021/12/29 03:22:57;;;;;;;9.13;5.97;;;8.60;99.90;;;;;;5055395;28;20203;-46
2021/12/29 03:25:24;;;;;;;14.60;6.73;;;8.60;99.90;;;;;;5073697;28;20175;-45
2021/12/29 03:27:50;;;;;;;7.87;6.13;;;8.60;99.90;;;;;;5073274;28;20285;-47
2021/12/29 03:30:16;;;;;;;8.97;7.00;;;8.60;99.90;;;;;;5073461;28;20294;-47
2021/12/29 03:32:51;;;;;;;8.07;5.87;;;8.60;99.90;;;;;;5073360;28;20241;-47
2021/12/29 03:35:18;;;;;;;10.27;6.27;;;8.60;99.90;;;;;;5055358;28;20647;-47
2021/12/29 03:37:44;;;;;;;10.70;6.50;;;8.60;99.90;;;;;;5073101;28;20679;-47
2021/12/29 03:40:10;;;;;;;11.17;6.67;;;8.60;99.90;;;;;;5073230;28;20187;-47
2021/12/29 03:42:36;;;;;;;11.33;5.23;;;8.60;99.90;;;;;;5073040;28;20233;-49
2021/12/29 03:45:03;;;;;;;9.10;6.97;;;8.60;99.90;;;;;;5073162;28;20677;-48
2021/12/29 03:47:29;;;;;;;11.43;7.90;;;8.60;99.90;;;;;;5073659;28;20190;-49
2021/12/29 03:49:55;;;;;;;10.93;7.20;;;8.60;99.90;;;;;;5074654;28;20258;-48
2021/12/29 03:52:21;;;;;;;9.83;7.40;;;8.60;99.90;;;;;;5077016;28;20770;-47
2021/12/29 03:54:47;;;;;;;19.47;7.93;;;8.60;99.90;;;;;;5059238;28;20577;-47
2021/12/29 03:57:12;;;;;;;10.00;6.87;;;8.60;99.90;;;;;;5077062;28;20201;-48
2021/12/29 03:59:38;;;;;;;13.33;7.50;;;8.60;99.90;;;;;;5059029;28;20643;-47
2021/12/29 04:02:03;;;;;;;11.00;7.87;;;8.60;99.90;;;;;;5058845;28;20187;-48
2021/12/29 04:04:29;;;;;;;14.17;6.43;;;8.60;99.90;;;;;;5076878;28;20247;-47
2021/12/29 04:06:55;;;;;;;15.43;8.17;;;8.60;99.90;;;;;;5076789;28;20202;-47
2021/12/29 04:09:21;;;;;;;9.43;6.33;;;8.60;99.90;;;;;;5076569;28;20171;-48
2021/12/29 04:11:50;;;;;;;12.00;8.43;;;8.60;99.90;;;;;;5076375;28;20206;-47
2021/12/29 04:14:18;;;;;;;16.43;6.93;;;8.60;99.90;;;;;;5076570;28;20647;-47
2021/12/29 04:16:46;;;;;;;13.10;8.03;;;8.60;99.90;;;;;;5076665;28;20191;-47
2021/12/29 04:19:16;;;;;;;9.83;6.80;;;8.60;99.90;;;;;;5058818;28;20643;-47
2021/12/29 04:21:44;;;;;;;8.67;6.73;;;8.60;99.90;;;;;;5058688;28;20207;-47
2021/12/29 04:24:11;;;;;;;17.33;8.50;;;8.50;99.90;;;;;;5076699;28;20175;-45
2021/12/29 04:26:38;;;;;;;12.30;6.13;;;8.50;99.90;;;;;;5076608;28;20246;-49
2021/12/29 04:29:10;;;;;;;10.43;6.13;;;8.50;99.90;;;;;;5076418;28;20230;-47
2021/12/29 04:31:35;;;;;;;12.37;6.90;;;8.60;99.90;;;;;;5076327;28;20249;-47
2021/12/29 04:34:01;;;;;;;13.27;7.30;;;8.50;99.90;;;;;;5076375;28;20639;-47
2021/12/29 04:36:27;;;;;;;9.23;6.00;;;8.50;99.90;;;;;;5076064;28;20199;-46
2021/12/29 04:38:55;;;;;;;11.33;7.83;;;8.60;99.90;;;;;;5076336;28;20540;-47
2021/12/29 04:41:21;;;;;;;12.07;7.10;;;8.50;99.90;;;;;;5076270;28;20168;-47
2021/12/29 04:43:47;;;;;;;13.47;7.37;;;8.50;99.90;;;;;;5076108;28;20266;-46
2021/12/29 04:46:18;;;;;;;16.67;8.53;;;8.50;99.90;;;;;;5076209;28;20207;-46
2021/12/29 04:48:52;;;;;;;10.40;7.80;;;8.50;99.90;;;;;;5075816;28;20163;-47
2021/12/29 04:51:24;;;;;;;16.70;8.57;;;8.50;99.90;;;;;;5075957;28;20540;-46
2021/12/29 04:53:51;;;;;;;13.13;7.00;;;8.50;99.90;;;;;;5076088;28;20156;-46
2021/12/29 04:56:17;;;;;;;14.93;7.33;;;8.50;99.90;;;;;;5057772;28;20647;-46
2021/12/29 04:58:43;;;;;;;14.33;8.30;;;8.50;99.90;;;;;;5075949;28;20180;-47
2021/12/29 05:01:09;;;;;;;12.50;6.73;;;8.50;99.90;;;;;;5074519;28;20233;-45
2021/12/29 05:03:38;;;;;;;10.97;7.63;;;8.50;99.90;;;;;;5057670;28;20229;-45
2021/12/29 05:08:33;;;;;;;11.03;8.13;;;8.50;99.90;;;;;;5075822;28;20666;-47
2021/12/29 05:11:04;;;;;;;9.27;7.10;;;8.40;99.90;;;;;;5057495;28;20183;-45
2021/12/29 05:13:33;;;;;;;18.83;8.70;;;8.40;99.90;;;;;;5075354;28;20209;-47
2021/12/29 05:15:59;;;;;;;14.60;7.87;;;8.50;99.90;;;;;;5075343;28;20233;-46
2021/12/29 05:18:27;;;;;;;16.50;8.60;;;8.40;99.90;;;;;;5075374;28;20196;-45
2021/12/29 05:20:54;;;;;;;15.63;9.13;;;8.50;99.90;;;;;;5075303;28;20170;-45
2021/12/29 05:23:20;;;;;;;14.50;9.00;;;8.40;99.90;;;;;;5057265;28;20678;-47
2021/12/29 05:25:46;;;;;;;16.70;8.80;;;8.50;99.90;;;;;;5075260;28;20250;-47
2021/12/29 05:28:12;;;;;;;13.93;8.17;;;8.40;99.90;;;;;;5075147;28;20191;-46
2021/12/29 05:30:38;;;;;;;12.97;7.97;;;8.50;99.90;;;;;;5075837;28;20262;-46
2021/12/29 05:33:05;;;;;;;13.73;8.50;;;8.40;99.90;;;;;;5075057;28;20199;-46
2021/12/29 05:35:31;;;;;;;14.37;8.47;;;8.40;99.90;;;;;;5057193;28;20213;-47
2021/12/29 05:37:56;;;;;;;11.83;8.17;;;8.40;99.90;;;;;;5057009;28;20288;-48
2021/12/29 05:40:23;;;;;;;14.10;8.70;;;8.50;99.90;;;;;;5075046;28;20175;-46
2021/12/29 05:42:49;;;;;;;13.60;8.97;;;8.40;99.90;;;;;;5074777;28;20228;-48
2021/12/29 05:45:15;;;;;;;14.03;8.93;;;8.40;99.90;;;;;;5075112;28;20563;-48
2021/12/29 05:47:43;;;;;;;14.63;8.67;;;8.40;99.90;;;;;;5074918;28;20241;-48
2021/12/29 05:50:13;;;;;;;13.33;8.93;;;8.40;99.90;;;;;;5056711;28;20187;-46
2021/12/29 05:52:39;;;;;;;15.63;8.77;;;8.40;99.90;;;;;;5074930;28;20211;-47
2021/12/29 05:55:06;;;;;;;15.13;8.83;;;8.40;99.90;;;;;;5074729;28;20660;-48
2021/12/29 05:57:32;;;;;;;14.27;8.13;;;8.40;99.90;;;;;;5074546;28;20195;-47
2021/12/29 05:59:58;;;;;;;14.37;7.93;;;8.40;99.90;;;;;;5056692;28;20215;-47
2021/12/29 06:02:24;;;;;;;15.33;8.87;;;8.40;99.90;;;;;;5056651;28;20230;-47
2021/12/29 06:04:49;;;;;;;14.57;8.83;;;8.40;99.90;;;;;;5074734;28;20179;-47
2021/12/29 06:07:15;;;;;;;13.03;8.40;;;8.40;99.90;;;;;;5074603;28;20719;-47
2021/12/29 06:09:41;;;;;;;11.53;7.70;;;8.40;99.90;;;;;;5074518;28;20670;-47
2021/12/29 06:12:07;;;;;;;16.40;9.23;;;8.40;99.90;;;;;;5074194;28;20194;-45
2021/12/29 06:14:33;;;;;;;13.57;8.07;;;8.40;99.90;;;;;;5074613;28;20191;-46
2021/12/29 06:16:59;;;;;;;13.80;8.63;;;8.40;99.90;;;;;;5074541;28;20255;-47
2021/12/29 06:19:24;;;;;;;12.57;7.60;;;8.40;99.90;;;;;;5056948;28;20298;-48
2021/12/29 06:21:50;;;;;;;13.00;8.07;;;8.40;99.90;;;;;;5074168;28;20535;-47
2021/12/29 06:25:08;;;;;;;11.57;8.57;;;8.40;99.90;;;;;;5074698;28;20183;-46
2021/12/29 06:27:34;;;;;;;10.70;7.90;;;8.30;99.90;;;;;;5056285;28;20183;-48
2021/12/29 06:30:00;;;;;;;11.87;7.97;;;8.30;99.90;;;;;;5074325;28;20262;-45
2021/12/29 06:32:26;;;;;;;11.43;7.97;;;8.40;99.90;;;;;;5073690;28;20191;-44
2021/12/29 06:34:51;;;;;;;15.03;8.57;;;8.40;99.90;;;;;;5055899;28;20179;-46
2021/12/29 06:37:17;;;;;;;12.30;8.00;;;8.40;99.90;;;;;;5074145;28;20529;-45
2021/12/29 06:39:45;;;;;;;11.93;7.67;;;8.30;99.90;;;;;;5073603;28;20236;-46
2021/12/29 06:42:12;;;;;;;12.30;7.23;;;8.30;99.90;;;;;;5073538;28;20218;-45
2021/12/29 06:44:38;;;;;;;12.93;6.77;;;8.40;99.90;;;;;;5073621;28;20179;-46
2021/12/29 06:47:04;;;;;;;11.20;7.30;;;8.40;99.90;;;;;;5073815;28;20178;-46
2021/12/29 06:49:30;;;;;;;13.80;8.17;;;8.40;99.90;;;;;;5073694;28;20183;-45
2021/12/29 06:51:55;;;;;;;12.40;7.93;;;8.40;99.90;;;;;;5073472;28;20199;-46
2021/12/29 06:54:21;;;;;;;14.00;7.57;;;8.40;99.90;;;;;;5074211;28;20274;-47
2021/12/29 06:56:47;;;;;;;13.73;7.70;;;8.40;99.90;;;;;;5073877;28;20260;-46
2021/12/29 06:59:12;;;;;;;16.13;10.23;;;8.30;99.90;;;;;;5073499;28;20195;-45
2021/12/29 07:01:38;;;;;;;15.33;8.43;;;8.40;99.90;;;;;;5073573;28;20221;-44
2021/12/29 07:04:04;;;;;;;12.17;7.63;;;8.40;99.90;;;;;;5055325;28;20178;-45
2021/12/29 07:06:29;;;;;;;10.07;7.40;;;8.40;99.90;;;;;;5073555;28;20195;-45
2021/12/29 07:08:55;;;;;;;14.30;8.07;;;8.40;99.90;;;;;;5073677;28;20643;-45
2021/12/29 07:11:21;;;;;;;12.70;8.30;;;8.40;99.90;;;;;;5073194;28;20652;-45
2021/12/29 07:13:46;;;;;;;11.33;6.40;;;8.40;99.90;;;;;;5073444;28;20188;-44
2021/12/29 07:16:13;;;;;;;12.43;7.07;;;8.30;99.90;;;;;;5073407;28;20215;-46
2021/12/29 07:18:38;;;;;;;16.43;9.03;;;8.30;99.90;;;;;;5055128;28;20704;-46
2021/12/29 07:21:04;;;;;;;11.67;8.93;;;8.40;99.90;;;;;;5073157;28;20183;-45
2021/12/29 07:23:30;;;;;;;14.70;8.80;;;8.30;99.90;;;;;;5073131;28;20280;-45
2021/12/29 07:25:55;;;;;;;17.33;9.20;;;8.30;99.90;;;;;;5055310;28;20187;-45
2021/12/29 07:28:21;;;;;;;10.10;6.13;;;8.30;99.90;;;;;;5073095;28;20199;-45
2021/12/29 07:30:47;;;;;;;11.40;7.43;;;8.30;99.90;;;;;;5073003;28;20207;-45
2021/12/29 07:33:12;;;;;;;17.47;9.83;;;8.30;99.90;;;;;;5072977;28;20213;-45
2021/12/29 07:35:38;;;;;;;15.63;8.70;;;8.40;99.90;;;;;;5073004;28;20282;-44
2021/12/29 07:38:03;;;;;;;11.70;8.20;;;8.30;99.90;;;;;;5072896;28;20714;-44
2021/12/29 07:40:30;;;;;;;11.73;6.93;;;8.40;99.90;;;;;;5055037;28;20624;-45
2021/12/29 07:42:56;;;;;;;11.77;7.10;;;8.30;99.90;;;;;;5038350;28;20253;-45
2021/12/29 07:45:24;;;;;;;15.40;6.90;;;8.40;99.90;;;;;;5054934;28;20624;-46
2021/12/29 07:47:50;;;;;;;10.63;6.90;;;8.30;99.90;;;;;;5073175;28;20171;-45
2021/12/29 07:50:19;;;;;;;11.93;6.43;;;8.30;99.90;;;;;;5073329;28;20202;-45
2021/12/29 07:52:48;;;;;;;10.53;6.33;;;8.40;99.90;;;;;;5072715;28;20281;-45
2021/12/29 07:55:19;;;;;;;10.80;5.70;;;8.30;99.90;;;;;;5054865;28;20184;-44
2021/12/29 07:57:46;;;;;;;10.13;6.47;;;8.30;99.90;;;;;;5054810;28;20295;-45
2021/12/29 08:00:13;;;;;;;12.33;6.90;;;8.30;99.90;;;;;;5054835;28;20179;-44
2021/12/29 08:02:39;;;;;;;11.67;6.67;;;8.30;99.90;;;;;;5072582;28;20216;-44
2021/12/29 08:05:06;;;;;;;13.60;7.37;;;8.30;99.90;;;;;;5054806;28;20749;-45
2021/12/29 08:07:32;;;;;;;12.00;7.00;;;8.30;99.90;;;;;;5072555;28;20219;-45
2021/12/29 08:09:57;;;;;;;8.23;6.93;;;8.30;99.90;;;;;;5072747;28;20243;-46
2021/12/29 08:12:23;;;;;;;13.73;6.77;;;8.30;99.90;;;;;;5073345;28;20229;-46
2021/12/29 08:14:49;;;;;;;11.53;6.37;;;8.30;99.90;;;;;;5072916;28;20176;-45
2021/12/29 08:17:15;;;;;;;12.10;7.07;;;8.30;99.90;;;;;;5072799;28;20196;-45
2021/12/29 08:19:41;;;;;;;7.67;5.97;;;8.30;99.90;;;;;;5072683;28;20176;-45
2021/12/29 08:22:07;;;;;;;11.20;6.10;;;8.30;99.90;;;;;;5072787;28;20282;-45
2021/12/29 08:24:33;;;;;;;12.97;7.17;;;8.30;99.90;;;;;;5073391;28;20647;-45
2021/12/29 08:26:58;;;;;;;8.63;5.90;;;8.30;99.90;;;;;;5072769;28;20179;-45
2021/12/29 08:29:24;;;;;;;8.87;6.40;;;8.30;99.90;;;;;;5072474;28;20223;-45
2021/12/29 08:31:50;;;;;;;10.17;6.73;;;8.30;99.90;;;;;;5054590;28;20678;-45
2021/12/29 08:34:15;;;;;;;8.83;6.13;;;8.30;99.90;;;;;;5072735;28;20178;-45
2021/12/29 08:36:42;;;;;;;9.90;6.33;;;8.30;99.90;;;;;;5056856;28;20198;-46
2021/12/29 08:39:08;;;;;;;10.57;6.20;;;8.30;99.90;;;;;;5076078;28;20183;-46
2021/12/29 08:41:34;;;;;;;10.87;6.90;;;8.30;99.90;;;;;;5076204;28;20172;-44
2021/12/29 08:43:59;;;;;;;7.00;6.20;;;8.30;99.90;;;;;;5075989;28;20167;-46
2021/12/29 08:46:25;;;;;;;14.53;6.53;;;8.40;99.90;;;;;;5075915;28;20253;-46
2021/12/29 08:48:51;;;;;;;10.10;6.13;;;8.40;99.90;;;;;;5076072;28;20619;-47
2021/12/29 08:51:18;;;;;;;10.53;6.23;;;8.40;99.90;;;;;;5076033;28;20179;-46
2021/12/29 08:53:44;;;;;;;8.93;5.80;;;8.40;99.90;;;;;;5075749;28;20215;-46
2021/12/29 08:56:09;;;;;;;8.20;5.37;;;8.40;99.90;;;;;;5075695;28;20666;-45
2021/12/29 08:58:35;;;;;;;11.60;6.37;;;8.50;99.90;;;;;;5075857;28;20218;-46
2021/12/29 09:01:01;;;;;;;10.53;6.20;;;8.50;99.90;;;;;;5075917;28;20171;-46
2021/12/29 09:03:28;;;;;;;12.97;6.40;;;8.50;99.90;;;;;;5075791;28;20199;-45
2021/12/29 09:05:53;;;;;;;8.50;6.50;;;8.50;99.90;;;;;;5075662;28;20174;-45
2021/12/29 09:08:19;;;;;;;10.37;5.87;;;8.50;99.90;;;;;;5075629;28;20175;-46
2021/12/29 09:10:45;;;;;;;11.63;5.60;;;8.50;99.90;;;;;;5075771;28;20186;-46
2021/12/29 09:13:12;;;;;;;11.07;6.10;;;8.50;99.90;;;;;;5075535;28;20277;-46
2021/12/29 09:15:38;;;;;;;9.93;5.83;;;8.60;99.90;;;;;;5075838;28;20541;-45
2021/12/29 09:18:04;;;;;;;9.80;5.50;;;8.50;99.90;;;;;;5076254;28;20241;-46
2021/12/29 09:20:33;;;;;;;10.33;6.07;;;8.60;99.90;;;;;;5057363;28;20175;-45
2021/12/29 09:23:05;;;;;;;13.63;5.90;;;8.60;99.90;;;;;;5075218;28;20276;-46
2021/12/29 09:25:31;;;;;;;18.40;5.77;;;8.60;99.90;;;;;;5075541;28;20240;-45
2021/12/29 09:27:57;;;;;;;11.87;5.67;;;8.60;99.90;;;;;;5057110;28;20223;-45
2021/12/29 09:30:27;;;;;;;8.30;5.43;;;8.70;99.90;;;;;;5075416;28;20671;-45
2021/12/29 09:32:54;;;;;;;11.27;5.93;;;8.60;99.90;;;;;;5075270;28;20301;-45
2021/12/29 09:35:21;;;;;;;12.10;5.43;;;8.70;99.90;;;;;;5074997;28;20175;-46
2021/12/29 09:37:47;;;;;;;16.07;6.43;;;8.70;99.90;;;;;;5074857;28;20278;-46
2021/12/29 09:40:15;;;;;;;11.73;5.83;;;8.60;99.90;;;;;;5075312;28;20176;-47
2021/12/29 09:42:41;;;;;;;9.07;4.77;;;8.70;99.90;;;;;;5075554;28;20654;-47
2021/12/29 09:45:08;;;;;;;12.90;5.30;;;8.70;99.90;;;;;;5075621;28;20179;-48
2021/12/29 09:47:35;;;;;;;10.07;5.30;;;8.70;99.90;;;;;;5074808;28;20198;-47
2021/12/29 09:50:03;;;;;;;15.00;5.67;;;8.70;99.90;;;;;;5075628;28;20205;-47
2021/12/29 09:52:33;;;;;;;13.27;5.57;;;8.70;99.90;;;;;;5075503;28;20202;-47
2021/12/29 09:54:59;;;;;;;12.93;5.73;;;8.70;99.90;;;;;;5057499;28;20183;-47
2021/12/29 09:57:25;;;;;;;14.23;5.57;;;8.80;99.90;;;;;;5075614;28;20196;-47
2021/12/29 09:59:50;;;;;;;13.40;6.17;;;8.80;99.90;;;;;;5075266;28;20583;-47
2021/12/29 10:02:16;;;;;;;15.47;5.57;;;8.80;99.90;;;;;;5075045;28;20191;-46
2021/12/29 10:04:45;;;;;;;15.40;6.43;;;8.90;99.90;;;;;;5075382;28;20178;-48
2021/12/29 10:07:29;;;;;;;15.27;6.10;;;8.90;99.90;;;;;;5057980;28;20175;-46
2021/12/29 10:09:55;;;;;;;14.27;6.57;;;8.90;99.90;;;;;;5075456;28;20165;-48
2021/12/29 10:12:22;;;;;;;15.83;6.27;;;9.00;99.90;;;;;;5074807;28;20269;-46
2021/12/29 10:14:56;;;;;;;16.43;6.00;;;9.00;99.90;;;;;;5074766;28;20202;-47
2021/12/29 10:17:28;;;;;;;13.20;5.73;;;9.00;99.90;;;;;;5075080;28;20193;-47
2021/12/29 10:20:12;;;;;;;14.30;5.77;;;9.10;99.90;;;;;;5074807;28;20176;-48
2021/12/29 10:22:39;;;;;;;14.80;6.03;;;9.20;99.90;;;;;;5074634;28;20287;-47
2021/12/29 10:25:06;;;;;;;13.73;5.93;;;9.30;99.90;;;;;;5074275;28;20198;-47
2021/12/29 10:27:32;;;;;;;14.07;5.57;;;9.40;99.90;;;;;;5056151;28;20180;-48
2021/12/29 10:29:58;;;;;;;14.33;6.20;;;9.50;99.90;;;;;;5074818;28;20188;-47
2021/12/29 10:32:25;;;;;;;10.30;5.60;;;9.60;99.90;;;;;;5074329;28;20199;-48
2021/12/29 10:34:53;;;;;;;9.70;4.80;;;9.60;99.90;;;;;;5074275;28;20207;-47
2021/12/29 10:37:23;;;;;;;15.10;5.13;;;9.80;99.90;;;;;;5073890;28;20263;-48
2021/12/29 10:39:52;;;;;;;9.10;4.80;;;9.80;99.90;;;;;;5074286;28;20159;-48
2021/12/29 10:42:24;;;;;;;12.63;4.07;;;9.90;99.90;;;;;;5055993;28;20203;-48
2021/12/29 10:44:52;;;;;;;9.77;4.20;;;9.90;99.90;;;;;;5073785;28;20195;-47
2021/12/29 10:47:21;;;;;;;9.67;4.37;;;9.90;99.90;;;;;;5073689;28;20191;-48
2021/12/29 10:50:04;;;;;;;7.57;3.97;;;9.90;99.90;;;;;;5073604;28;20183;-47
2021/12/29 10:52:38;;;;;;;8.17;3.43;;;9.90;99.90;;;;;;5073493;28;20199;-48
2021/12/29 10:55:08;;;;;;;6.07;3.30;;;9.90;99.90;;;;;;5074098;28;20161;-48
2021/12/29 10:57:34;;;;;;;10.80;3.90;;;9.90;99.90;;;;;;5073639;28;20538;-46
2021/12/29 11:00:02;;;;;;;6.40;3.57;;;10.00;99.90;;;;;;5073403;28;20172;-48
2021/12/29 11:02:35;;;;;;;9.17;4.27;;;10.00;99.90;;;;;;5073571;28;20203;-48
2021/12/29 11:05:06;;;;;;;8.20;3.67;;;10.00;99.90;;;;;;5073635;28;20168;-48
2021/12/29 11:07:33;;;;;;;7.30;3.73;;;10.00;99.90;;;;;;5073526;28;20182;-48
2021/12/29 11:10:20;;;;;;;9.47;3.80;;;10.00;99.90;;;;;;5055620;28;20172;-47
2021/12/29 11:12:54;;;;;;;6.00;3.50;;;10.00;99.90;;;;;;5073441;28;20289;-48
2021/12/29 11:15:23;;;;;;;7.97;3.77;;;10.00;99.90;;;;;;5073708;28;20649;-48
2021/12/29 11:17:49;;;;;;;9.20;3.80;;;10.00;99.90;;;;;;5073811;28;20624;-48
2021/12/29 11:20:19;;;;;;;10.50;3.23;;;10.00;99.90;;;;;;5073219;28;20222;-47
2021/12/29 11:22:45;;;;;;;7.03;2.83;;;10.00;99.90;;;;;;5055256;28;20597;-48
2021/12/29 11:25:10;;;;;;;9.03;3.20;;;10.00;99.90;;;;;;5073250;28;20197;-48
2021/12/29 11:27:38;;;;;;;7.07;3.30;;;10.00;99.90;;;;;;5073227;28;20187;-48
2021/12/29 11:30:12;;;;;;;7.27;3.03;;;10.00;99.90;;;;;;5073279;28;20257;-47
2021/12/29 11:32:41;;;;;;;6.60;3.40;;;10.00;99.90;;;;;;5073005;28;20200;-47
2021/12/29 11:35:14;;;;;;;8.17;2.80;;;10.00;99.90;;;;;;5073098;28;20175;-47
2021/12/29 11:37:46;;;;;;;9.23;2.97;;;10.00;99.90;;;;;;5055036;28;20225;-46
2021/12/29 11:40:15;;;;;;;10.67;3.30;;;10.00;99.90;;;;;;5073049;28;20162;-46
2021/12/29 11:42:40;;;;;;;8.00;2.53;;;10.00;99.90;;;;;;5054942;28;20250;-46
2021/12/29 11:45:08;;;;;;;6.60;3.10;;;10.00;99.90;;;;;;5073005;28;20180;-46
2021/12/29 11:47:34;;;;;;;7.33;2.70;;;10.00;99.90;;;;;;5073230;28;20184;-45
2021/12/29 11:50:00;;;;;;;12.67;3.10;;;10.00;99.90;;;;;;5073049;28;20207;-47
2021/12/29 11:52:34;;;;;;;12.23;2.90;;;10.00;99.90;;;;;;5072975;28;20254;-46
2021/12/29 11:55:14;;;;;;;3.93;2.50;;;9.90;99.90;;;;;;5073202;28;20167;-46
2021/12/29 11:57:40;;;;;;;7.47;2.90;;;9.90;99.90;;;;;;5073314;28;20189;-46
2021/12/29 12:00:17;;;;;;;5.83;2.70;;;9.90;99.90;;;;;;5073338;28;20169;-46
2021/12/29 12:02:44;;;;;;;7.93;3.10;;;9.90;99.90;;;;;;5091002;28;20233;-46
2021/12/29 12:05:14;;;;;;;10.70;2.90;;;10.00;99.90;;;;;;5093410;28;20274;-45
2021/12/29 12:07:40;;;;;;;9.40;2.37;;;9.90;99.90;;;;;;5075220;28;20178;-45
2021/12/29 12:10:12;;;;;;;3.67;2.37;;;9.90;99.90;;;;;;5074888;28;20183;-45
2021/12/29 12:12:52;;;;;;;7.20;2.50;;;9.90;99.90;;;;;;5096796;28;20204;-45
2021/12/29 12:15:29;;;;;;;6.13;2.33;;;9.80;99.90;;;;;;5097127;28;20272;-45
2021/12/29 12:17:55;;;;;;;6.73;2.50;;;9.90;99.90;;;;;;5097069;28;20184;-45
2021/12/29 12:20:22;;;;;;;6.23;2.27;;;10.00;99.90;;;;;;5096669;28;20182;-45
2021/12/29 12:22:53;;;;;;;8.80;2.20;;;10.00;99.90;;;;;;5096850;28;20593;-44
2021/12/29 12:25:25;;;;;;;9.90;2.63;;;10.00;99.90;;;;;;5096724;28;20603;-45
2021/12/29 12:27:51;;;;;;;7.07;2.60;;;9.90;99.90;;;;;;5096516;28;20205;-44
2021/12/29 12:30:18;;;;;;;11.00;3.07;;;10.00;99.90;;;;;;5078321;28;20189;-46
2021/12/29 12:32:49;;;;;;;10.67;2.40;;;10.00;99.90;;;;;;5096674;28;20599;-46
2021/12/29 12:35:27;;;;;;;11.40;2.50;;;9.90;99.90;;;;;;5078296;28;20186;-45
2021/12/29 12:37:53;;;;;;;6.17;2.40;;;9.90;99.90;;;;;;5078043;28;20207;-45
2021/12/29 12:40:22;;;;;;;4.67;2.70;;;9.90;99.90;;;;;;5096342;28;20174;-44
2021/12/29 12:43:01;;;;;;;9.07;2.53;;;9.90;99.90;;;;;;5078833;28;20206;-45
2021/12/29 12:45:32;;;;;;;5.50;2.17;;;10.00;99.90;;;;;;5078068;28;20176;-45
2021/12/29 12:48:08;;;;;;;6.53;2.63;;;10.00;99.90;;;;;;5096175;28;20217;-46
2021/12/29 12:50:34;;;;;;;6.47;2.50;;;10.00;99.90;;;;;;5096229;28;20160;-46
2021/12/29 12:53:00;;;;;;;6.37;2.33;;;10.00;99.90;;;;;;5077898;28;20293;-46
2021/12/29 12:55:29;;;;;;;4.37;2.17;;;10.00;99.90;;;;;;5095973;28;20264;-47